createdAt,value
2022-10-14T00:01:45.965Z,15.58
2022-10-14T00:04:24.116Z,15.61
2022-10-14T00:07:02.276Z,15.51
2022-10-14T00:09:43.417Z,15.51
2022-10-14T00:12:25.025Z,15.52
2022-10-14T00:15:05.795Z,15.59
2022-10-14T00:17:43.025Z,15.56
2022-10-14T00:20:21.239Z,15.61
2022-10-14T00:23:01.622Z,15.69
2022-10-14T00:25:39.297Z,15.71
2022-10-14T00:28:17.917Z,15.74
2022-10-14T00:30:57.212Z,15.69
2022-10-14T00:33:35.469Z,15.66
2022-10-14T00:36:16.651Z,15.67
2022-10-14T00:38:55.433Z,15.70
2022-10-14T00:41:35.158Z,15.66
2022-10-14T00:44:13.086Z,15.64
2022-10-14T00:46:51.733Z,15.70
2022-10-14T00:49:38.282Z,15.64
2022-10-14T00:52:21.008Z,15.62
2022-10-14T00:55:05.306Z,15.59
2022-10-14T00:57:44.341Z,15.57
2022-10-14T01:00:23.597Z,15.59
2022-10-14T01:03:06.784Z,15.50
2022-10-14T01:05:58.781Z,15.17
2022-10-14T01:08:45.944Z,15.19
2022-10-14T01:11:41.943Z,15.22
2022-10-14T01:14:27.683Z,15.20
2022-10-14T01:17:18.774Z,15.11
2022-10-14T01:20:06.251Z,15.07
2022-10-14T01:23:19.161Z,15.09
2022-10-14T01:26:19.360Z,15.12
2022-10-14T01:29:04.011Z,15.17
2022-10-14T01:31:48.943Z,15.02
2022-10-14T01:34:36.113Z,15.10
2022-10-14T01:37:23.838Z,15.12
2022-10-14T01:40:12.172Z,15.13
2022-10-14T01:42:53.069Z,14.94
2022-10-14T01:45:35.189Z,15.02
2022-10-14T01:48:18.012Z,14.99
2022-10-14T01:50:59.912Z,15.09
2022-10-14T01:53:42.787Z,15.09
2022-10-14T01:56:21.235Z,15.02
2022-10-14T01:59:00.693Z,14.97
2022-10-14T02:01:39.753Z,15.11
2022-10-14T02:04:20.580Z,15.14
2022-10-14T02:07:31.024Z,15.23
2022-10-14T02:10:23.857Z,15.22
2022-10-14T02:13:27.961Z,15.20
2022-10-14T02:16:12.413Z,15.12
2022-10-14T02:19:08.667Z,15.18
2022-10-14T02:22:08.599Z,15.10
2022-10-14T02:24:52.119Z,14.97
2022-10-14T02:27:34.755Z,14.94
2022-10-14T02:30:15.829Z,14.92
2022-10-14T02:32:54.094Z,14.89
2022-10-14T02:35:34.870Z,14.91
2022-10-14T02:38:16.465Z,14.90
2022-10-14T02:40:54.599Z,15.01
2022-10-14T02:43:32.754Z,14.88
2022-10-14T02:46:11.000Z,14.83
2022-10-14T02:48:51.834Z,14.64
2022-10-14T02:51:30.519Z,14.59
2022-10-14T02:54:08.738Z,14.55
2022-10-14T02:56:46.989Z,14.49
2022-10-14T02:59:25.230Z,14.50
2022-10-14T03:02:03.457Z,14.44
2022-10-14T03:04:41.960Z,14.47
2022-10-14T03:07:21.310Z,14.48
2022-10-14T03:10:03.202Z,14.47
2022-10-14T03:12:46.245Z,14.48
2022-10-14T03:15:33.624Z,14.49
2022-10-14T03:18:11.810Z,14.49
2022-10-14T03:20:54.873Z,14.44
2022-10-14T03:23:39.410Z,14.36
2022-10-14T03:26:18.032Z,14.23
2022-10-14T03:28:59.062Z,14.19
2022-10-14T03:31:50.959Z,14.18
2022-10-14T03:34:44.215Z,14.12
2022-10-14T03:37:27.164Z,14.20
2022-10-14T03:40:07.678Z,14.30
2022-10-14T03:42:47.114Z,14.31
2022-10-14T03:45:28.433Z,14.41
2022-10-14T03:48:08.052Z,14.42
2022-10-14T03:50:49.547Z,14.34
2022-10-14T03:53:30.842Z,14.35
2022-10-14T03:56:11.536Z,14.30
2022-10-14T03:58:48.870Z,14.30
2022-10-14T04:01:30.785Z,14.38
2022-10-14T04:04:32.492Z,14.27
2022-10-14T04:07:10.787Z,14.29
2022-10-14T04:09:48.986Z,14.27
2022-10-14T04:12:27.359Z,14.22
2022-10-14T04:15:11.770Z,14.14
2022-10-14T04:18:09.848Z,14.20
2022-10-14T04:20:48.900Z,14.05
2022-10-14T04:23:27.204Z,14.05
2022-10-14T04:26:10.546Z,14.06
2022-10-14T04:28:50.089Z,13.99
2022-10-14T04:31:43.171Z,13.99
2022-10-14T04:34:22.979Z,14.00
2022-10-14T04:37:02.159Z,13.96
2022-10-14T04:39:56.383Z,13.94
2022-10-14T04:42:34.554Z,13.94
2022-10-14T04:45:18.570Z,13.91
2022-10-14T04:48:03.986Z,13.92
2022-10-14T04:50:52.721Z,13.99
2022-10-14T04:53:54.177Z,13.96
2022-10-14T04:56:51.986Z,14.04
2022-10-14T04:59:31.079Z,13.96
2022-10-14T05:02:30.639Z,14.05
2022-10-14T05:05:11.479Z,13.82
2022-10-14T05:07:55.487Z,13.82
2022-10-14T05:10:48.953Z,13.70
2022-10-14T05:13:41.408Z,13.65
2022-10-14T05:16:21.039Z,13.74
2022-10-14T05:18:59.278Z,13.74
2022-10-14T05:21:41.054Z,13.79
2022-10-14T05:24:23.838Z,13.78
2022-10-14T05:27:02.978Z,13.81
2022-10-14T05:29:43.219Z,13.79
2022-10-14T05:32:21.892Z,13.71
2022-10-14T05:35:03.125Z,13.72
2022-10-14T05:37:47.444Z,13.77
2022-10-14T05:40:24.791Z,13.77
2022-10-14T05:43:06.765Z,13.78
2022-10-14T05:45:47.448Z,13.83
2022-10-14T05:48:25.993Z,13.86
2022-10-14T05:51:05.185Z,14.00
2022-10-14T05:53:46.450Z,14.21
2022-10-14T05:56:27.569Z,14.38
2022-10-14T05:59:05.983Z,14.52
2022-10-14T06:01:47.068Z,14.53
2022-10-14T06:04:25.935Z,14.56
2022-10-14T06:07:03.728Z,14.45
2022-10-14T06:09:41.877Z,14.39
2022-10-14T06:12:20.426Z,14.59
2022-10-14T06:14:58.803Z,15.09
2022-10-14T06:17:38.127Z,15.72
2022-10-14T06:20:16.401Z,15.94
2022-10-14T06:22:54.533Z,15.73
2022-10-14T06:25:36.290Z,15.65
2022-10-14T06:28:14.330Z,15.66
2022-10-14T06:30:55.127Z,15.56
2022-10-14T06:33:35.185Z,15.51
2022-10-14T06:36:15.590Z,15.52
2022-10-14T06:38:54.475Z,15.58
2022-10-14T06:41:33.198Z,15.69
2022-10-14T06:44:15.601Z,15.79
2022-10-14T06:46:54.370Z,15.83
2022-10-14T06:49:32.543Z,15.79
2022-10-14T06:52:11.961Z,15.95
2022-10-14T06:54:50.600Z,16.02
2022-10-14T06:57:28.865Z,16.10
2022-10-14T07:00:07.951Z,16.15
2022-10-14T07:02:46.890Z,16.22
2022-10-14T07:05:25.495Z,16.34
2022-10-14T07:08:03.248Z,16.40
2022-10-14T07:10:41.486Z,16.46
2022-10-14T07:13:19.760Z,16.68
2022-10-14T07:15:57.923Z,16.74
2022-10-14T07:18:36.074Z,16.99
2022-10-14T07:21:14.661Z,17.17
2022-10-14T07:23:51.209Z,17.01
2022-10-14T07:26:31.563Z,17.00
2022-10-14T07:29:10.447Z,17.15
2022-10-14T07:31:48.736Z,17.27
2022-10-14T07:34:27.338Z,17.42
2022-10-14T07:37:06.603Z,17.92
2022-10-14T07:39:48.154Z,19.22
2022-10-14T07:42:26.335Z,20.65
2022-10-14T07:45:06.663Z,21.38
2022-10-14T07:47:48.271Z,22.31
2022-10-14T07:50:25.800Z,22.67
2022-10-14T07:53:04.008Z,23.41
2022-10-14T07:55:52.288Z,23.66
2022-10-14T07:58:31.811Z,23.93
2022-10-14T08:01:09.769Z,24.11
2022-10-14T08:03:48.527Z,24.52
2022-10-14T08:06:26.172Z,24.55
2022-10-14T08:09:05.803Z,24.56
2022-10-14T08:11:44.528Z,24.88
2022-10-14T08:14:25.326Z,24.62
2022-10-14T08:17:03.883Z,24.44
2022-10-14T08:19:42.688Z,24.47
2022-10-14T08:22:20.728Z,24.55
2022-10-14T08:24:58.485Z,25.32
2022-10-14T08:27:36.666Z,24.82
2022-10-14T08:30:14.864Z,25.03
2022-10-14T08:32:53.409Z,24.93
2022-10-14T08:35:31.559Z,24.74
2022-10-14T08:38:09.663Z,24.52
2022-10-14T08:41:07.492Z,23.78
2022-10-14T08:43:50.198Z,23.57
2022-10-14T08:46:38.175Z,24.56
2022-10-14T08:49:40.602Z,24.51
2022-10-14T08:52:25.485Z,24.63
2022-10-14T08:55:33.879Z,24.99
2022-10-14T08:58:23.669Z,24.68
2022-10-14T09:01:15.292Z,24.63
2022-10-14T09:04:01.089Z,24.79
2022-10-14T09:06:43.265Z,24.70
2022-10-14T09:09:26.453Z,25.07
2022-10-14T09:12:09.730Z,24.84
2022-10-14T09:15:13.255Z,25.17
2022-10-14T09:18:16.547Z,25.10
2022-10-14T09:20:56.367Z,25.25
2022-10-14T09:23:34.616Z,25.53
2022-10-14T09:26:19.386Z,25.23
2022-10-14T09:28:57.430Z,25.42
2022-10-14T09:31:35.451Z,25.23
2022-10-14T09:34:25.887Z,25.20
2022-10-14T09:37:31.237Z,25.13
2022-10-14T09:40:44.112Z,24.13
2022-10-14T09:43:24.958Z,24.25
2022-10-14T09:46:08.042Z,24.40
2022-10-14T09:48:48.466Z,24.16
2022-10-14T09:51:31.218Z,24.32
2022-10-14T09:54:22.016Z,24.52
2022-10-14T09:57:07.262Z,23.35
2022-10-14T10:00:06.489Z,23.39
2022-10-14T10:02:46.962Z,23.38
2022-10-14T10:05:34.851Z,22.98
2022-10-14T10:08:18.669Z,23.17
2022-10-14T10:11:05.516Z,22.71
2022-10-14T10:13:45.404Z,22.91
2022-10-14T10:16:27.544Z,22.74
2022-10-14T10:19:44.182Z,22.41
2022-10-14T10:22:26.297Z,22.82
2022-10-14T10:25:08.210Z,22.87
2022-10-14T10:27:48.832Z,23.03
2022-10-14T10:30:38.933Z,23.05
2022-10-14T10:33:18.460Z,22.96
2022-10-14T10:36:21.203Z,22.60
2022-10-14T10:39:21.846Z,22.69
2022-10-14T10:42:23.858Z,22.75
2022-10-14T10:45:26.854Z,22.63
2022-10-14T10:48:28.079Z,22.70
2022-10-14T10:51:28.287Z,22.52
2022-10-14T10:54:19.477Z,22.39
2022-10-14T10:57:04.368Z,22.54
2022-10-14T11:00:10.952Z,22.53
2022-10-14T11:03:25.315Z,22.25
2022-10-14T11:06:15.009Z,22.43
2022-10-14T11:09:22.363Z,22.29
2022-10-14T11:12:35.261Z,22.38
2022-10-14T11:15:25.210Z,22.32
2022-10-14T11:18:14.450Z,22.34
2022-10-14T11:20:55.659Z,22.35
2022-10-14T11:23:49.064Z,22.30
2022-10-14T11:27:04.248Z,22.39
2022-10-14T11:29:55.059Z,22.78
2022-10-14T11:32:51.580Z,22.49
2022-10-14T11:35:59.055Z,22.60
2022-10-14T11:39:17.425Z,22.66
2022-10-14T11:42:24.753Z,22.65
2022-10-14T11:45:07.978Z,22.73
2022-10-14T11:47:50.694Z,22.48
2022-10-14T11:50:38.087Z,22.42
2022-10-14T11:53:39.278Z,22.59
2022-10-14T11:56:40.203Z,22.23
2022-10-14T11:59:37.723Z,22.21
2022-10-14T12:02:33.677Z,22.37
2022-10-14T12:05:41.621Z,22.23
2022-10-14T12:08:27.613Z,22.28
2022-10-14T12:11:29.890Z,22.35
2022-10-14T12:14:19.173Z,22.17
2022-10-14T12:17:00.109Z,21.76
2022-10-14T12:19:37.874Z,21.82
2022-10-14T12:22:15.754Z,21.91
2022-10-14T12:24:56.211Z,22.03
2022-10-14T12:30:34.007Z,22.10
2022-10-14T12:33:18.831Z,22.13
2022-10-14T12:36:01.126Z,22.20
2022-10-14T12:38:40.114Z,22.20
2022-10-14T12:41:39.544Z,22.44
2022-10-14T12:44:20.915Z,22.67
2022-10-14T12:47:00.397Z,22.64
2022-10-14T12:49:46.554Z,22.78
2022-10-14T12:52:31.849Z,22.66
2022-10-14T12:55:18.548Z,22.46
2022-10-14T12:58:05.210Z,22.29
2022-10-14T13:00:43.471Z,22.35
2022-10-14T13:03:27.447Z,22.34
2022-10-14T13:06:33.453Z,22.39
2022-10-14T13:09:11.485Z,22.36
2022-10-14T13:11:52.766Z,22.40
2022-10-14T13:14:35.406Z,22.45
2022-10-14T13:17:41.988Z,22.58
2022-10-14T13:20:34.587Z,22.48
2022-10-14T13:23:27.497Z,22.33
2022-10-14T13:26:21.974Z,22.12
2022-10-14T13:29:30.259Z,22.07
2022-10-14T13:32:30.821Z,21.97
2022-10-14T13:35:31.455Z,21.99
2022-10-14T13:38:17.757Z,22.09
2022-10-14T13:41:02.434Z,22.06
2022-10-14T13:43:43.212Z,22.04
2022-10-14T13:46:26.982Z,22.17
2022-10-14T13:49:08.395Z,22.12
2022-10-14T13:51:58.737Z,22.26
2022-10-14T13:54:36.527Z,22.39
2022-10-14T13:57:47.773Z,22.47
2022-10-14T14:00:50.832Z,22.24
2022-10-14T14:03:31.014Z,22.37
2022-10-14T14:06:14.486Z,22.22
2022-10-14T14:09:00.073Z,22.01
2022-10-14T14:11:46.752Z,22.00
2022-10-14T14:14:38.198Z,21.98
2022-10-14T14:17:19.824Z,21.90
2022-10-14T14:20:01.776Z,21.84
2022-10-14T14:22:46.293Z,21.97
2022-10-14T14:25:36.132Z,21.88
2022-10-14T14:28:22.740Z,21.86
2022-10-14T14:31:01.397Z,21.84
2022-10-14T14:33:39.429Z,21.66
2022-10-14T14:36:27.471Z,21.60
2022-10-14T14:39:05.385Z,21.60
2022-10-14T14:41:50.603Z,21.53
2022-10-14T14:44:33.254Z,21.47
2022-10-14T14:47:11.898Z,21.48
2022-10-14T14:49:57.477Z,21.48
2022-10-14T14:55:48.094Z,21.45
2022-10-14T14:58:30.967Z,21.43
2022-10-14T15:01:19.337Z,21.37
2022-10-14T15:04:16.582Z,21.43
2022-10-14T15:07:11.262Z,21.38
2022-10-14T15:09:55.326Z,21.35
2022-10-14T15:12:41.908Z,21.29
2022-10-14T15:15:31.018Z,21.30
2022-10-14T15:18:15.962Z,21.24
2022-10-14T15:21:19.444Z,21.25
2022-10-14T15:24:00.527Z,21.25
2022-10-14T15:26:38.550Z,21.16
2022-10-14T15:29:16.448Z,21.10
2022-10-14T15:32:01.768Z,21.01
2022-10-14T15:34:39.287Z,20.96
2022-10-14T15:37:17.379Z,20.93
2022-10-14T15:40:05.386Z,20.87
2022-10-14T15:42:44.326Z,20.85
2022-10-14T15:45:22.937Z,20.80
2022-10-14T15:48:04.526Z,20.80
2022-10-14T15:50:45.261Z,20.76
2022-10-14T15:53:22.554Z,20.73
2022-10-14T15:56:00.823Z,20.68
2022-10-14T15:58:39.142Z,20.62
2022-10-14T16:01:20.542Z,20.60
2022-10-14T16:03:59.373Z,20.60
2022-10-14T16:06:36.760Z,20.65
2022-10-14T16:09:14.982Z,20.56
2022-10-14T16:11:57.303Z,20.51
2022-10-14T16:14:36.122Z,20.48
2022-10-14T16:17:14.483Z,20.47
2022-10-14T16:19:52.599Z,20.41
2022-10-14T16:22:30.892Z,20.32
2022-10-14T16:25:20.189Z,20.31
2022-10-14T16:27:59.144Z,20.32
2022-10-14T16:30:40.660Z,20.28
2022-10-14T16:33:24.216Z,20.24
2022-10-14T16:36:04.195Z,20.18
2022-10-14T16:38:42.986Z,20.23
2022-10-14T16:41:20.607Z,20.20
2022-10-14T16:43:58.949Z,20.16
2022-10-14T16:46:58.583Z,20.13
2022-10-14T16:49:36.108Z,20.10
2022-10-14T16:52:15.587Z,20.06
2022-10-14T16:54:54.206Z,20.04
2022-10-14T16:57:32.786Z,19.99
2022-10-14T17:00:11.231Z,19.94
2022-10-14T17:02:48.813Z,19.93
2022-10-14T17:05:27.122Z,19.92
2022-10-14T17:08:05.297Z,19.93
2022-10-14T17:10:43.295Z,19.91
2022-10-14T17:13:21.509Z,19.82
2022-10-14T17:16:04.468Z,19.83
2022-10-14T17:18:43.122Z,19.82
2022-10-14T17:21:29.769Z,19.81
2022-10-14T17:24:07.489Z,19.73
2022-10-14T17:26:45.696Z,19.64
2022-10-14T17:29:24.151Z,19.44
2022-10-14T17:32:03.678Z,19.34
2022-10-14T17:34:40.221Z,19.32
2022-10-14T17:37:18.162Z,19.39
2022-10-14T17:39:56.366Z,19.47
2022-10-14T17:42:34.761Z,19.45
2022-10-14T17:45:12.724Z,19.46
2022-10-14T17:47:51.133Z,19.50
2022-10-14T17:50:30.660Z,19.50
2022-10-14T17:53:12.683Z,19.45
2022-10-14T17:55:52.795Z,19.47
2022-10-14T17:58:34.410Z,19.41
2022-10-14T18:01:15.869Z,19.39
2022-10-14T18:03:56.810Z,19.32
2022-10-14T18:06:35.275Z,19.27
2022-10-14T18:09:12.863Z,19.22
2022-10-14T18:14:49.816Z,19.15
2022-10-14T18:17:28.072Z,19.13
2022-10-14T18:20:10.277Z,19.20
2022-10-14T18:22:49.390Z,19.21
2022-10-14T18:25:27.522Z,19.12
2022-10-14T18:28:08.496Z,19.06
2022-10-14T18:30:47.056Z,19.01
2022-10-14T18:33:25.242Z,19.05
2022-10-14T18:36:06.030Z,19.01
2022-10-14T18:38:44.826Z,18.94
2022-10-14T18:41:25.078Z,18.87
2022-10-14T18:44:03.398Z,18.78
2022-10-14T18:46:41.198Z,18.68
2022-10-14T18:49:19.349Z,18.53
2022-10-14T18:51:57.579Z,18.48
2022-10-14T18:54:35.934Z,18.49
2022-10-14T18:57:14.995Z,18.47
2022-10-14T18:59:56.723Z,18.51
2022-10-14T19:02:35.129Z,18.35
2022-10-14T19:05:15.366Z,18.26
2022-10-14T19:07:54.767Z,18.23
2022-10-14T19:10:32.928Z,18.41
2022-10-14T19:13:12.231Z,18.48
2022-10-14T19:16:02.641Z,18.54
2022-10-14T19:18:43.053Z,18.48
2022-10-14T19:21:23.044Z,18.49
2022-10-14T19:24:02.916Z,18.42
2022-10-14T19:26:45.914Z,18.45
2022-10-14T19:29:24.793Z,18.34
2022-10-14T19:32:02.550Z,18.30
2022-10-14T19:34:44.850Z,18.18
2022-10-14T19:37:25.611Z,18.00
2022-10-14T19:40:03.869Z,17.81
2022-10-14T19:42:41.888Z,17.72
2022-10-14T19:45:18.771Z,17.67
2022-10-14T19:47:56.651Z,17.70
2022-10-14T19:50:34.815Z,17.67
2022-10-14T19:53:13.212Z,17.62
2022-10-14T19:55:51.335Z,17.71
2022-10-14T19:58:29.451Z,17.76
2022-10-14T20:01:16.194Z,17.78
2022-10-14T20:03:54.341Z,17.72
2022-10-14T20:06:35.447Z,17.77
2022-10-14T20:09:16.359Z,17.75
2022-10-14T20:11:54.895Z,17.74
2022-10-14T20:14:33.086Z,17.70
2022-10-14T20:17:11.285Z,17.67
2022-10-14T20:19:49.454Z,17.65
2022-10-14T20:22:27.702Z,17.55
2022-10-14T20:25:17.728Z,17.56
2022-10-14T20:27:56.245Z,17.59
2022-10-14T20:30:34.138Z,17.54
2022-10-14T20:33:12.649Z,17.53
2022-10-14T20:36:05.411Z,17.64
2022-10-14T20:38:43.405Z,17.63
2022-10-14T20:41:24.555Z,17.53
2022-10-14T20:44:02.727Z,17.47
2022-10-14T20:46:44.130Z,17.45
2022-10-14T20:49:22.305Z,17.38
2022-10-14T20:52:00.519Z,17.34
2022-10-14T20:54:38.801Z,17.31
2022-10-14T20:57:18.460Z,17.28
2022-10-14T20:59:57.634Z,17.23
2022-10-14T21:02:34.973Z,17.25
2022-10-14T21:05:13.193Z,17.25
2022-10-14T21:07:52.574Z,17.19
2022-10-14T21:10:31.215Z,17.10
2022-10-14T21:13:09.405Z,17.09
2022-10-14T21:15:47.612Z,17.12
2022-10-14T21:18:29.290Z,17.08
2022-10-14T21:21:07.546Z,16.88
2022-10-14T21:23:49.395Z,16.75
2022-10-14T21:26:29.969Z,16.78
2022-10-14T21:29:08.217Z,16.85
2022-10-14T21:31:47.384Z,16.92
2022-10-14T21:34:26.206Z,16.76
2022-10-14T21:37:04.510Z,16.80
2022-10-14T21:39:41.395Z,16.79
2022-10-14T21:42:18.213Z,16.84
2022-10-14T21:44:54.608Z,16.85
2022-10-14T21:47:31.429Z,16.79
2022-10-14T21:50:08.371Z,16.71
2022-10-14T21:52:44.366Z,16.68
2022-10-14T21:55:21.059Z,16.61
2022-10-14T21:57:57.726Z,16.63
2022-10-14T22:00:34.529Z,16.64
2022-10-14T22:03:11.564Z,16.63
2022-10-14T22:05:57.372Z,16.64
2022-10-14T22:08:37.190Z,16.63
2022-10-14T22:11:27.071Z,16.62
2022-10-14T22:14:07.586Z,16.63
2022-10-14T22:16:46.117Z,16.65
2022-10-14T22:19:22.721Z,16.61
2022-10-14T22:22:01.307Z,16.52
2022-10-14T22:24:38.993Z,16.67
2022-10-14T22:27:15.519Z,16.65
2022-10-14T22:29:52.132Z,16.87
2022-10-14T22:32:28.707Z,16.70
2022-10-14T22:35:05.882Z,16.57
2022-10-14T22:37:42.016Z,16.59
2022-10-14T22:40:18.868Z,16.62
2022-10-14T22:42:55.302Z,16.44
2022-10-14T22:45:32.278Z,16.52
2022-10-14T22:48:08.356Z,16.52
2022-10-14T22:50:44.971Z,16.58
2022-10-14T22:53:21.773Z,16.63
2022-10-14T22:55:58.608Z,16.68
2022-10-14T22:58:34.871Z,16.49
2022-10-14T23:01:16.676Z,16.49
2022-10-14T23:03:52.734Z,16.45
2022-10-14T23:06:30.476Z,16.58
2022-10-14T23:09:07.611Z,16.67
2022-10-14T23:11:47.426Z,16.71
2022-10-14T23:14:24.067Z,16.50
2022-10-14T23:17:00.660Z,16.50
2022-10-14T23:19:40.162Z,16.41
2022-10-14T23:22:17.033Z,16.33
2022-10-14T23:24:53.483Z,16.38
2022-10-14T23:27:32.860Z,16.30
2022-10-14T23:30:14.822Z,16.25
2022-10-14T23:32:54.490Z,16.36
2022-10-14T23:35:31.559Z,16.39
2022-10-14T23:38:12.314Z,16.29
2022-10-14T23:40:39.980Z,16.23
2022-10-14T23:43:07.351Z,16.21
2022-10-14T23:45:34.700Z,16.22
2022-10-14T23:48:02.031Z,16.23
2022-10-14T23:50:29.311Z,16.17
2022-10-14T23:52:56.669Z,16.13
2022-10-14T23:55:24.079Z,16.21
2022-10-14T23:57:51.422Z,16.36
